sensor_id;sensor_type;location;lat;lon;timestamp;pressure;altitude;pressure_sealevel;temperature;humidity
18275;BME280;19470;49.322;7.218;2023-05-09T00:00:28;98938.63;;;19.44;100.00
18275;BME280;19470;49.322;7.218;2023-05-09T00:02:55;98944.84;;;19.58;100.00
18275;BME280;19470;49.322;7.218;2023-05-09T00:05:22;98928.47;;;19.73;100.00
18275;BME280;19470;49.322;7.218;2023-05-09T00:07:49;98935.75;;;19.54;100.00
18275;BME280;19470;49.322;7.218;2023-05-09T00:10:15;98939.81;;;19.70;100.00
18275;BME280;19470;49.322;7.218;2023-05-09T00:12:43;98929.28;;;19.55;100.00
18275;BME280;19470;49.322;7.218;2023-05-09T00:15:11;98919.00;;;19.43;100.00
18275;BME280;19470;49.322;7.218;2023-05-09T00:17:38;98925.28;;;19.52;100.00
18275;BME280;19470;49.322;7.218;2023-05-09T00:20:06;98916.88;;;19.26;100.00
18275;BME280;19470;49.322;7.218;2023-05-09T00:22:37;98909.34;;;19.61;100.00
18275;BME280;19470;49.322;7.218;2023-05-09T00:25:04;98905.97;;;19.69;100.00
18275;BME280;19470;49.322;7.218;2023-05-09T00:27:31;98907.50;;;19.24;100.00
18275;BME280;19470;49.322;7.218;2023-05-09T00:29:59;98908.88;;;19.21;100.00
18275;BME280;19470;49.322;7.218;2023-05-09T00:32:25;98901.25;;;19.28;100.00
18275;BME280;19470;49.322;7.218;2023-05-09T00:34:53;98904.00;;;19.23;100.00
18275;BME280;19470;49.322;7.218;2023-05-09T00:37:20;98912.66;;;19.20;100.00
18275;BME280;19470;49.322;7.218;2023-05-09T00:39:46;98904.19;;;19.13;100.00
18275;BME280;19470;49.322;7.218;2023-05-09T00:42:13;98910.13;;;19.10;100.00
18275;BME280;19470;49.322;7.218;2023-05-09T00:44:39;98908.91;;;19.54;100.00
18275;BME280;19470;49.322;7.218;2023-05-09T00:47:07;98903.97;;;19.61;100.00
18275;BME280;19470;49.322;7.218;2023-05-09T00:49:53;98904.53;;;19.58;100.00
18275;BME280;19470;49.322;7.218;2023-05-09T00:52:21;98903.81;;;19.20;100.00
18275;BME280;19470;49.322;7.218;2023-05-09T00:54:50;98903.78;;;19.71;100.00
18275;BME280;19470;49.322;7.218;2023-05-09T00:57:17;98906.69;;;19.23;100.00
18275;BME280;19470;49.322;7.218;2023-05-09T00:59:43;98902.44;;;19.22;100.00
18275;BME280;19470;49.322;7.218;2023-05-09T01:02:11;98891.88;;;19.45;100.00
18275;BME280;19470;49.322;7.218;2023-05-09T01:04:38;98888.56;;;19.48;100.00
18275;BME280;19470;49.322;7.218;2023-05-09T01:07:09;98890.41;;;19.33;100.00
18275;BME280;19470;49.322;7.218;2023-05-09T01:09:42;98882.22;;;19.11;100.00
18275;BME280;19470;49.322;7.218;2023-05-09T01:12:15;98881.47;;;19.05;100.00
18275;BME280;19470;49.322;7.218;2023-05-09T01:14:55;98885.53;;;19.22;100.00
18275;BME280;19470;49.322;7.218;2023-05-09T01:17:33;98884.16;;;19.38;100.00
18275;BME280;19470;49.322;7.218;2023-05-09T01:20:08;98876.72;;;19.35;100.00
18275;BME280;19470;49.322;7.218;2023-05-09T01:22:41;98880.53;;;19.15;100.00
18275;BME280;19470;49.322;7.218;2023-05-09T01:25:24;98887.69;;;19.38;100.00
18275;BME280;19470;49.322;7.218;2023-05-09T01:28:06;98878.53;;;19.72;100.00
18275;BME280;19470;49.322;7.218;2023-05-09T01:30:34;98877.81;;;19.48;100.00
18275;BME280;19470;49.322;7.218;2023-05-09T01:33:06;98878.84;;;19.19;100.00
18275;BME280;19470;49.322;7.218;2023-05-09T01:35:34;98870.31;;;18.98;100.00
18275;BME280;19470;49.322;7.218;2023-05-09T01:38:12;98873.06;;;19.12;100.00
18275;BME280;19470;49.322;7.218;2023-05-09T01:40:40;98868.56;;;19.07;100.00
18275;BME280;19470;49.322;7.218;2023-05-09T01:43:09;98870.00;;;19.00;100.00
18275;BME280;19470;49.322;7.218;2023-05-09T01:45:38;98870.47;;;19.07;100.00
18275;BME280;19470;49.322;7.218;2023-05-09T01:48:07;98871.38;;;19.16;100.00
18275;BME280;19470;49.322;7.218;2023-05-09T01:50:35;98856.81;;;19.36;100.00
18275;BME280;19470;49.322;7.218;2023-05-09T01:53:04;98852.97;;;19.56;100.00
18275;BME280;19470;49.322;7.218;2023-05-09T01:55:33;98859.72;;;19.39;100.00
18275;BME280;19470;49.322;7.218;2023-05-09T01:58:02;98847.38;;;19.52;100.00
18275;BME280;19470;49.322;7.218;2023-05-09T02:00:30;98850.38;;;19.51;100.00
18275;BME280;19470;49.322;7.218;2023-05-09T02:03:00;98853.56;;;19.39;100.00
18275;BME280;19470;49.322;7.218;2023-05-09T02:05:27;98849.88;;;19.35;100.00
18275;BME280;19470;49.322;7.218;2023-05-09T02:07:55;98854.03;;;19.74;100.00
18275;BME280;19470;49.322;7.218;2023-05-09T02:10:23;98856.50;;;19.70;100.00
18275;BME280;19470;49.322;7.218;2023-05-09T02:12:50;98851.94;;;19.38;100.00
18275;BME280;19470;49.322;7.218;2023-05-09T02:15:17;98857.22;;;19.62;100.00
18275;BME280;19470;49.322;7.218;2023-05-09T02:17:43;98855.44;;;19.52;100.00
18275;BME280;19470;49.322;7.218;2023-05-09T02:20:12;98853.44;;;19.77;100.00
18275;BME280;19470;49.322;7.218;2023-05-09T02:22:39;98849.53;;;19.69;100.00
18275;BME280;19470;49.322;7.218;2023-05-09T02:25:07;98838.72;;;19.88;100.00
18275;BME280;19470;49.322;7.218;2023-05-09T02:27:37;98842.97;;;19.89;100.00
18275;BME280;19470;49.322;7.218;2023-05-09T02:30:07;98845.88;;;19.79;100.00
18275;BME280;19470;49.322;7.218;2023-05-09T02:32:37;98838.44;;;19.57;100.00
18275;BME280;19470;49.322;7.218;2023-05-09T02:35:05;98843.22;;;19.46;100.00
18275;BME280;19470;49.322;7.218;2023-05-09T02:37:35;98851.66;;;19.39;100.00
18275;BME280;19470;49.322;7.218;2023-05-09T02:40:02;98840.66;;;18.89;100.00
18275;BME280;19470;49.322;7.218;2023-05-09T02:42:30;98841.59;;;19.31;100.00
18275;BME280;19470;49.322;7.218;2023-05-09T02:44:57;98835.66;;;19.48;100.00
18275;BME280;19470;49.322;7.218;2023-05-09T02:47:23;98840.38;;;19.70;100.00
18275;BME280;19470;49.322;7.218;2023-05-09T02:49:50;98825.47;;;19.91;100.00
18275;BME280;19470;49.322;7.218;2023-05-09T02:52:17;98825.75;;;20.04;100.00
18275;BME280;19470;49.322;7.218;2023-05-09T02:54:45;98832.72;;;19.63;100.00
18275;BME280;19470;49.322;7.218;2023-05-09T02:57:12;98823.59;;;19.78;100.00
18275;BME280;19470;49.322;7.218;2023-05-09T02:59:39;98828.91;;;19.51;100.00
18275;BME280;19470;49.322;7.218;2023-05-09T03:02:05;98820.56;;;19.66;100.00
18275;BME280;19470;49.322;7.218;2023-05-09T03:04:32;98817.94;;;19.47;100.00
18275;BME280;19470;49.322;7.218;2023-05-09T03:06:58;98833.75;;;19.35;100.00
18275;BME280;19470;49.322;7.218;2023-05-09T03:09:25;98835.06;;;18.86;100.00
18275;BME280;19470;49.322;7.218;2023-05-09T03:11:53;98833.41;;;18.90;100.00
18275;BME280;19470;49.322;7.218;2023-05-09T03:14:20;98840.28;;;18.58;100.00
18275;BME280;19470;49.322;7.218;2023-05-09T03:16:47;98826.41;;;19.08;100.00
18275;BME280;19470;49.322;7.218;2023-05-09T03:19:13;98820.97;;;19.13;100.00
18275;BME280;19470;49.322;7.218;2023-05-09T03:21:40;98820.56;;;19.66;100.00
18275;BME280;19470;49.322;7.218;2023-05-09T03:24:07;98819.00;;;19.32;100.00
18275;BME280;19470;49.322;7.218;2023-05-09T03:26:34;98821.34;;;19.53;100.00
18275;BME280;19470;49.322;7.218;2023-05-09T03:29:02;98822.31;;;19.29;100.00
18275;BME280;19470;49.322;7.218;2023-05-09T03:31:29;98816.03;;;19.48;100.00
18275;BME280;19470;49.322;7.218;2023-05-09T03:33:56;98811.47;;;19.34;100.00
18275;BME280;19470;49.322;7.218;2023-05-09T03:36:22;98812.13;;;19.73;100.00
18275;BME280;19470;49.322;7.218;2023-05-09T03:38:49;98814.63;;;19.69;100.00
18275;BME280;19470;49.322;7.218;2023-05-09T03:41:16;98818.91;;;19.37;100.00
18275;BME280;19470;49.322;7.218;2023-05-09T03:43:43;98824.09;;;19.34;100.00
18275;BME280;19470;49.322;7.218;2023-05-09T03:46:11;98822.47;;;19.19;100.00
18275;BME280;19470;49.322;7.218;2023-05-09T03:48:37;98826.88;;;19.42;100.00
18275;BME280;19470;49.322;7.218;2023-05-09T03:51:04;98825.63;;;19.54;100.00
18275;BME280;19470;49.322;7.218;2023-05-09T03:53:30;98819.31;;;19.77;100.00
18275;BME280;19470;49.322;7.218;2023-05-09T03:55:56;98804.09;;;19.86;100.00
18275;BME280;19470;49.322;7.218;2023-05-09T03:58:23;98812.25;;;19.95;100.00
18275;BME280;19470;49.322;7.218;2023-05-09T04:00:50;98816.94;;;19.43;100.00
18275;BME280;19470;49.322;7.218;2023-05-09T04:03:18;98815.03;;;19.76;100.00
18275;BME280;19470;49.322;7.218;2023-05-09T04:05:44;98813.38;;;19.48;100.00
18275;BME280;19470;49.322;7.218;2023-05-09T04:08:11;98813.91;;;19.17;100.00
18275;BME280;19470;49.322;7.218;2023-05-09T04:10:37;98811.28;;;18.98;100.00
18275;BME280;19470;49.322;7.218;2023-05-09T04:13:04;98811.94;;;19.23;100.00
18275;BME280;19470;49.322;7.218;2023-05-09T04:15:30;98813.16;;;19.30;100.00
18275;BME280;19470;49.322;7.218;2023-05-09T04:17:57;98808.34;;;19.74;100.00
18275;BME280;19470;49.322;7.218;2023-05-09T04:20:25;98807.38;;;19.37;100.00
18275;BME280;19470;49.322;7.218;2023-05-09T04:22:52;98792.13;;;19.65;100.00
18275;BME280;19470;49.322;7.218;2023-05-09T04:25:18;98800.50;;;20.05;100.00
18275;BME280;19470;49.322;7.218;2023-05-09T04:27:45;98788.50;;;20.25;100.00
18275;BME280;19470;49.322;7.218;2023-05-09T04:30:12;98786.31;;;20.13;100.00
18275;BME280;19470;49.322;7.218;2023-05-09T04:32:39;98789.75;;;19.77;100.00
18275;BME280;19470;49.322;7.218;2023-05-09T04:35:09;98797.97;;;19.95;100.00
18275;BME280;19470;49.322;7.218;2023-05-09T04:37:39;98797.50;;;19.65;100.00
18275;BME280;19470;49.322;7.218;2023-05-09T04:43:27;98784.16;;;19.87;100.00
18275;BME280;19470;49.322;7.218;2023-05-09T04:45:54;98788.75;;;19.87;100.00
18275;BME280;19470;49.322;7.218;2023-05-09T04:48:21;98782.47;;;20.05;100.00
18275;BME280;19470;49.322;7.218;2023-05-09T04:50:47;98784.34;;;20.05;100.00
18275;BME280;19470;49.322;7.218;2023-05-09T04:53:15;98775.97;;;20.06;100.00
18275;BME280;19470;49.322;7.218;2023-05-09T04:55:42;98772.41;;;19.97;100.00
18275;BME280;19470;49.322;7.218;2023-05-09T04:58:09;98776.91;;;19.74;100.00
18275;BME280;19470;49.322;7.218;2023-05-09T05:00:35;98769.50;;;19.38;100.00
18275;BME280;19470;49.322;7.218;2023-05-09T05:03:02;98779.53;;;19.47;100.00
18275;BME280;19470;49.322;7.218;2023-05-09T05:05:28;98782.13;;;19.38;100.00
18275;BME280;19470;49.322;7.218;2023-05-09T05:07:55;98777.66;;;19.47;100.00
18275;BME280;19470;49.322;7.218;2023-05-09T05:10:25;98774.00;;;19.84;100.00
18275;BME280;19470;49.322;7.218;2023-05-09T05:12:52;98768.84;;;19.60;100.00
18275;BME280;19470;49.322;7.218;2023-05-09T05:15:18;98771.53;;;19.88;100.00
18275;BME280;19470;49.322;7.218;2023-05-09T05:17:45;98775.22;;;19.78;100.00
18275;BME280;19470;49.322;7.218;2023-05-09T05:20:11;98779.97;;;19.54;100.00
18275;BME280;19470;49.322;7.218;2023-05-09T05:22:38;98772.09;;;19.99;100.00
18275;BME280;19470;49.322;7.218;2023-05-09T05:25:06;98774.75;;;20.26;100.00
18275;BME280;19470;49.322;7.218;2023-05-09T05:27:34;98768.19;;;20.55;100.00
18275;BME280;19470;49.322;7.218;2023-05-09T05:30:00;98761.94;;;20.46;100.00
18275;BME280;19470;49.322;7.218;2023-05-09T05:32:27;98756.78;;;20.49;100.00
18275;BME280;19470;49.322;7.218;2023-05-09T05:34:53;98759.22;;;20.23;100.00
18275;BME280;19470;49.322;7.218;2023-05-09T05:37:21;98749.78;;;20.12;100.00
18275;BME280;19470;49.322;7.218;2023-05-09T05:39:47;98751.38;;;19.99;100.00
18275;BME280;19470;49.322;7.218;2023-05-09T05:42:15;98744.03;;;20.05;100.00
18275;BME280;19470;49.322;7.218;2023-05-09T05:44:43;98749.38;;;20.55;100.00
18275;BME280;19470;49.322;7.218;2023-05-09T05:47:10;98754.69;;;20.68;100.00
18275;BME280;19470;49.322;7.218;2023-05-09T05:49:36;98760.94;;;20.41;100.00
18275;BME280;19470;49.322;7.218;2023-05-09T05:52:03;98752.28;;;20.08;100.00
18275;BME280;19470;49.322;7.218;2023-05-09T05:54:30;98753.09;;;19.95;100.00
18275;BME280;19470;49.322;7.218;2023-05-09T05:56:56;98751.44;;;20.22;100.00
18275;BME280;19470;49.322;7.218;2023-05-09T05:59:23;98740.66;;;20.35;100.00
18275;BME280;19470;49.322;7.218;2023-05-09T06:01:51;98752.00;;;20.68;100.00
18275;BME280;19470;49.322;7.218;2023-05-09T06:04:17;98746.72;;;21.08;100.00
18275;BME280;19470;49.322;7.218;2023-05-09T06:06:44;98738.41;;;20.96;100.00
18275;BME280;19470;49.322;7.218;2023-05-09T06:09:10;98740.78;;;20.98;100.00
18275;BME280;19470;49.322;7.218;2023-05-09T06:11:37;98744.00;;;20.55;100.00
18275;BME280;19470;49.322;7.218;2023-05-09T06:14:04;98734.09;;;20.86;100.00
18275;BME280;19470;49.322;7.218;2023-05-09T06:16:30;98731.25;;;20.47;100.00
18275;BME280;19470;49.322;7.218;2023-05-09T06:18:59;98727.47;;;20.70;100.00
18275;BME280;19470;49.322;7.218;2023-05-09T06:21:25;98730.13;;;21.15;100.00
18275;BME280;19470;49.322;7.218;2023-05-09T06:23:52;98729.50;;;21.18;100.00
18275;BME280;19470;49.322;7.218;2023-05-09T06:26:18;98730.63;;;21.57;100.00
18275;BME280;19470;49.322;7.218;2023-05-09T06:28:45;98722.44;;;21.79;100.00
18275;BME280;19470;49.322;7.218;2023-05-09T06:31:11;98726.22;;;21.69;100.00
18275;BME280;19470;49.322;7.218;2023-05-09T06:33:38;98722.88;;;21.73;100.00
18275;BME280;19470;49.322;7.218;2023-05-09T06:36:06;98729.16;;;22.08;100.00
18275;BME280;19470;49.322;7.218;2023-05-09T06:38:32;98720.75;;;22.44;100.00
18275;BME280;19470;49.322;7.218;2023-05-09T06:40:59;98710.09;;;22.82;100.00
18275;BME280;19470;49.322;7.218;2023-05-09T06:43:26;98714.06;;;22.67;100.00
18275;BME280;19470;49.322;7.218;2023-05-09T06:45:52;98710.13;;;22.48;100.00
18275;BME280;19470;49.322;7.218;2023-05-09T06:48:19;98702.31;;;22.72;100.00
18275;BME280;19470;49.322;7.218;2023-05-09T06:50:46;98698.69;;;22.68;100.00
18275;BME280;19470;49.322;7.218;2023-05-09T06:53:14;98694.06;;;22.68;100.00
18275;BME280;19470;49.322;7.218;2023-05-09T06:55:41;98698.31;;;22.95;100.00
18275;BME280;19470;49.322;7.218;2023-05-09T06:58:07;98699.28;;;22.82;100.00
18275;BME280;19470;49.322;7.218;2023-05-09T07:00:35;98701.72;;;22.32;100.00
18275;BME280;19470;49.322;7.218;2023-05-09T07:03:03;98698.38;;;22.09;100.00
18275;BME280;19470;49.322;7.218;2023-05-09T07:05:31;98694.06;;;21.82;100.00
18275;BME280;19470;49.322;7.218;2023-05-09T07:07:58;98689.31;;;21.96;100.00
18275;BME280;19470;49.322;7.218;2023-05-09T07:10:47;98687.28;;;22.19;100.00
18275;BME280;19470;49.322;7.218;2023-05-09T07:13:14;98685.03;;;22.04;100.00
18275;BME280;19470;49.322;7.218;2023-05-09T07:15:40;98681.22;;;22.57;100.00
18275;BME280;19470;49.322;7.218;2023-05-09T07:18:07;98674.50;;;22.71;100.00
18275;BME280;19470;49.322;7.218;2023-05-09T07:20:33;98670.88;;;22.67;100.00
18275;BME280;19470;49.322;7.218;2023-05-09T07:23:01;98665.03;;;22.57;100.00
18275;BME280;19470;49.322;7.218;2023-05-09T07:25:28;98656.28;;;22.60;100.00
18275;BME280;19470;49.322;7.218;2023-05-09T07:27:56;98671.44;;;22.26;100.00
18275;BME280;19470;49.322;7.218;2023-05-09T07:30:22;98664.13;;;22.18;100.00
18275;BME280;19470;49.322;7.218;2023-05-09T07:32:49;98660.28;;;22.54;100.00
18275;BME280;19470;49.322;7.218;2023-05-09T07:35:16;98646.66;;;22.41;100.00
18275;BME280;19470;49.322;7.218;2023-05-09T07:37:42;98646.09;;;22.74;100.00
18275;BME280;19470;49.322;7.218;2023-05-09T07:40:10;98643.94;;;22.50;100.00
18275;BME280;19470;49.322;7.218;2023-05-09T07:42:36;98633.41;;;23.13;100.00
18275;BME280;19470;49.322;7.218;2023-05-09T07:45:17;98633.97;;;23.27;98.31
18275;BME280;19470;49.322;7.218;2023-05-09T07:47:43;98632.72;;;23.54;98.59
18275;BME280;19470;49.322;7.218;2023-05-09T07:50:10;98636.06;;;22.83;100.00
18275;BME280;19470;49.322;7.218;2023-05-09T07:52:36;98628.56;;;23.27;99.22
18275;BME280;19470;49.322;7.218;2023-05-09T07:55:03;98635.44;;;23.25;99.08
18275;BME280;19470;49.322;7.218;2023-05-09T07:57:31;98633.16;;;22.41;100.00
18275;BME280;19470;49.322;7.218;2023-05-09T07:59:57;98628.13;;;22.87;100.00
18275;BME280;19470;49.322;7.218;2023-05-09T08:02:25;98621.03;;;23.12;100.00
18275;BME280;19470;49.322;7.218;2023-05-09T08:04:51;98626.78;;;23.61;97.26
18275;BME280;19470;49.322;7.218;2023-05-09T08:07:18;98615.59;;;23.71;93.67
18275;BME280;19470;49.322;7.218;2023-05-09T08:09:45;98617.50;;;23.70;89.69
18275;BME280;19470;49.322;7.218;2023-05-09T08:12:11;98612.13;;;23.41;91.41
18275;BME280;19470;49.322;7.218;2023-05-09T08:14:38;98607.41;;;23.00;95.82
18275;BME280;19470;49.322;7.218;2023-05-09T08:17:05;98605.56;;;22.91;92.61
18275;BME280;19470;49.322;7.218;2023-05-09T08:19:32;98599.94;;;23.56;95.88
18275;BME280;19470;49.322;7.218;2023-05-09T08:21:59;98600.78;;;23.47;92.84
18275;BME280;19470;49.322;7.218;2023-05-09T08:24:25;98587.09;;;23.53;92.17
18275;BME280;19470;49.322;7.218;2023-05-09T08:26:52;98585.09;;;24.04;88.62
18275;BME280;19470;49.322;7.218;2023-05-09T08:29:18;98592.59;;;23.65;91.45
18275;BME280;19470;49.322;7.218;2023-05-09T08:31:45;98591.09;;;23.26;91.98
18275;BME280;19470;49.322;7.218;2023-05-09T08:34:11;98594.09;;;23.54;95.17
18275;BME280;19470;49.322;7.218;2023-05-09T08:36:39;98588.13;;;24.23;92.18
18275;BME280;19470;49.322;7.218;2023-05-09T08:39:06;98584.88;;;23.96;87.32
18275;BME280;19470;49.322;7.218;2023-05-09T08:41:33;98585.94;;;23.83;88.59
18275;BME280;19470;49.322;7.218;2023-05-09T08:44:01;98577.78;;;23.41;89.61
18275;BME280;19470;49.322;7.218;2023-05-09T08:46:32;98579.84;;;23.44;89.14
18275;BME280;19470;49.322;7.218;2023-05-09T08:49:03;98583.38;;;23.36;89.42
18275;BME280;19470;49.322;7.218;2023-05-09T08:51:31;98568.88;;;23.62;87.76
18275;BME280;19470;49.322;7.218;2023-05-09T08:53:59;98565.34;;;23.70;86.87
18275;BME280;19470;49.322;7.218;2023-05-09T08:56:26;98563.06;;;23.81;86.53
18275;BME280;19470;49.322;7.218;2023-05-09T08:58:53;98562.16;;;24.55;86.56
18275;BME280;19470;49.322;7.218;2023-05-09T09:01:21;98550.41;;;24.18;84.69
18275;BME280;19470;49.322;7.218;2023-05-09T09:03:47;98545.47;;;24.20;86.85
18275;BME280;19470;49.322;7.218;2023-05-09T09:06:14;98555.19;;;24.66;82.87
18275;BME280;19470;49.322;7.218;2023-05-09T09:08:41;98546.50;;;25.22;83.01
18275;BME280;19470;49.322;7.218;2023-05-09T09:11:12;98541.91;;;25.51;77.79
18275;BME280;19470;49.322;7.218;2023-05-09T09:13:40;98538.22;;;25.31;80.69
18275;BME280;19470;49.322;7.218;2023-05-09T09:16:09;98532.03;;;24.44;79.70
18275;BME280;19470;49.322;7.218;2023-05-09T09:18:36;98533.63;;;24.58;78.70
18275;BME280;19470;49.322;7.218;2023-05-09T09:21:06;98525.97;;;25.09;75.00
18275;BME280;19470;49.322;7.218;2023-05-09T09:23:37;98527.78;;;25.73;71.16
18275;BME280;19470;49.322;7.218;2023-05-09T09:26:04;98517.69;;;24.44;77.46
18275;BME280;19470;49.322;7.218;2023-05-09T09:28:32;98519.63;;;25.05;75.42
18275;BME280;19470;49.322;7.218;2023-05-09T09:30:59;98519.84;;;25.12;74.90
18275;BME280;19470;49.322;7.218;2023-05-09T09:33:27;98507.06;;;25.24;75.96
18275;BME280;19470;49.322;7.218;2023-05-09T09:35:55;98495.97;;;26.77;70.63
18275;BME280;19470;49.322;7.218;2023-05-09T09:38:23;98488.66;;;27.13;63.71
18275;BME280;19470;49.322;7.218;2023-05-09T09:40:54;98485.50;;;26.95;65.78
18275;BME280;19470;49.322;7.218;2023-05-09T09:43:26;98479.72;;;26.96;65.74
18275;BME280;19470;49.322;7.218;2023-05-09T09:45:54;98487.88;;;27.12;65.96
18275;BME280;19470;49.322;7.218;2023-05-09T09:48:23;98483.50;;;26.92;65.72
18275;BME280;19470;49.322;7.218;2023-05-09T09:50:49;98468.38;;;26.75;65.37
18275;BME280;19470;49.322;7.218;2023-05-09T09:53:19;98464.53;;;26.95;66.55
18275;BME280;19470;49.322;7.218;2023-05-09T09:55:49;98464.22;;;26.97;65.17
18275;BME280;19470;49.322;7.218;2023-05-09T09:58:16;98459.63;;;27.36;63.30
18275;BME280;19470;49.322;7.218;2023-05-09T10:00:43;98455.31;;;27.35;66.08
18275;BME280;19470;49.322;7.218;2023-05-09T10:03:14;98456.50;;;26.64;71.80
18275;BME280;19470;49.322;7.218;2023-05-09T10:05:41;98456.66;;;26.08;69.95
18275;BME280;19470;49.322;7.218;2023-05-09T10:08:08;98450.53;;;26.11;68.50
18275;BME280;19470;49.322;7.218;2023-05-09T10:10:36;98444.72;;;24.84;74.75
18275;BME280;19470;49.322;7.218;2023-05-09T10:13:04;98443.88;;;26.24;68.51
18275;BME280;19470;49.322;7.218;2023-05-09T10:15:32;98448.25;;;25.97;67.25
18275;BME280;19470;49.322;7.218;2023-05-09T10:18:00;98435.13;;;26.15;65.90
18275;BME280;19470;49.322;7.218;2023-05-09T10:20:30;98431.97;;;26.13;67.55
18275;BME280;19470;49.322;7.218;2023-05-09T10:23:00;98440.00;;;26.25;65.56
18275;BME280;19470;49.322;7.218;2023-05-09T10:25:32;98427.94;;;26.38;64.88
18275;BME280;19470;49.322;7.218;2023-05-09T10:28:09;98424.53;;;26.41;66.71
18275;BME280;19470;49.322;7.218;2023-05-09T10:30:40;98426.53;;;25.25;68.50
18275;BME280;19470;49.322;7.218;2023-05-09T10:33:10;98415.69;;;25.81;67.61
18275;BME280;19470;49.322;7.218;2023-05-09T10:35:44;98408.97;;;25.63;65.50
18275;BME280;19470;49.322;7.218;2023-05-09T10:38:11;98405.81;;;25.05;67.24
18275;BME280;19470;49.322;7.218;2023-05-09T10:40:39;98399.56;;;26.52;63.34
18275;BME280;19470;49.322;7.218;2023-05-09T10:43:06;98401.84;;;26.49;61.82
18275;BME280;19470;49.322;7.218;2023-05-09T10:45:33;98393.09;;;27.11;61.04
18275;BME280;19470;49.322;7.218;2023-05-09T10:48:00;98383.22;;;27.64;60.07
18275;BME280;19470;49.322;7.218;2023-05-09T10:50:29;98376.00;;;27.95;60.09
18275;BME280;19470;49.322;7.218;2023-05-09T10:53:07;98370.28;;;28.03;60.96
18275;BME280;19470;49.322;7.218;2023-05-09T10:55:37;98370.28;;;28.03;59.34
18275;BME280;19470;49.322;7.218;2023-05-09T10:58:29;98366.50;;;27.04;61.51
18275;BME280;19470;49.322;7.218;2023-05-09T11:00:58;98364.19;;;26.32;65.15
18275;BME280;19470;49.322;7.218;2023-05-09T11:03:26;98354.66;;;26.22;65.03
18275;BME280;19470;49.322;7.218;2023-05-09T11:05:54;98341.84;;;26.55;60.05
18275;BME280;19470;49.322;7.218;2023-05-09T11:08:24;98339.94;;;25.44;65.30
18275;BME280;19470;49.322;7.218;2023-05-09T11:14:28;98339.06;;;27.09;61.69
18275;BME280;19470;49.322;7.218;2023-05-09T11:16:58;98343.28;;;26.68;63.89
18275;BME280;19470;49.322;7.218;2023-05-09T11:19:36;98328.84;;;27.02;61.86
18275;BME280;19470;49.322;7.218;2023-05-09T11:22:13;98324.34;;;27.75;57.36
18275;BME280;19470;49.322;7.218;2023-05-09T11:24:45;98319.41;;;28.08;57.95
18275;BME280;19470;49.322;7.218;2023-05-09T11:27:17;98316.22;;;28.02;56.01
18275;BME280;19470;49.322;7.218;2023-05-09T11:29:47;98314.28;;;28.02;55.51
18275;BME280;19470;49.322;7.218;2023-05-09T11:32:15;98309.81;;;27.02;59.75
18275;BME280;19470;49.322;7.218;2023-05-09T11:34:42;98302.94;;;27.74;55.81
18275;BME280;19470;49.322;7.218;2023-05-09T11:37:10;98294.59;;;27.40;57.67
18275;BME280;19470;49.322;7.218;2023-05-09T11:39:56;98298.28;;;27.51;58.54
18275;BME280;19470;49.322;7.218;2023-05-09T11:42:24;98296.63;;;28.19;54.75
18275;BME280;19470;49.322;7.218;2023-05-09T11:44:51;98288.50;;;28.83;52.26
18275;BME280;19470;49.322;7.218;2023-05-09T11:47:18;98276.72;;;29.06;51.88
18275;BME280;19470;49.322;7.218;2023-05-09T11:49:45;98274.97;;;28.57;53.23
18275;BME280;19470;49.322;7.218;2023-05-09T11:52:11;98271.75;;;28.47;53.70
18275;BME280;19470;49.322;7.218;2023-05-09T11:54:38;98258.31;;;28.95;52.97
18275;BME280;19470;49.322;7.218;2023-05-09T11:57:06;98261.81;;;29.37;50.19
18275;BME280;19470;49.322;7.218;2023-05-09T11:59:33;98249.94;;;29.56;49.90
18275;BME280;19470;49.322;7.218;2023-05-09T12:02:02;98251.03;;;28.39;53.67
18275;BME280;19470;49.322;7.218;2023-05-09T12:04:29;98248.38;;;29.14;51.80
18275;BME280;19470;49.322;7.218;2023-05-09T12:06:57;98245.22;;;29.12;52.35
18275;BME280;19470;49.322;7.218;2023-05-09T12:09:24;98238.72;;;28.86;52.69
18275;BME280;19470;49.322;7.218;2023-05-09T12:11:51;98229.31;;;29.62;49.80
18275;BME280;19470;49.322;7.218;2023-05-09T12:14:29;98231.78;;;29.33;51.97
18275;BME280;19470;49.322;7.218;2023-05-09T12:17:02;98227.88;;;29.82;52.17
18275;BME280;19470;49.322;7.218;2023-05-09T12:19:28;98218.75;;;30.19;50.62
18275;BME280;19470;49.322;7.218;2023-05-09T12:21:55;98222.84;;;29.36;50.84
18275;BME280;19470;49.322;7.218;2023-05-09T12:24:23;98216.50;;;29.25;49.34
18275;BME280;19470;49.322;7.218;2023-05-09T12:26:51;98218.81;;;29.19;49.04
18275;BME280;19470;49.322;7.218;2023-05-09T12:29:18;98202.00;;;29.14;51.91
18275;BME280;19470;49.322;7.218;2023-05-09T12:31:47;98209.03;;;27.57;55.08
18275;BME280;19470;49.322;7.218;2023-05-09T12:34:14;98201.75;;;26.73;58.36
18275;BME280;19470;49.322;7.218;2023-05-09T12:36:42;98193.84;;;26.87;58.91
18275;BME280;19470;49.322;7.218;2023-05-09T12:39:15;98194.59;;;27.30;55.95
18275;BME280;19470;49.322;7.218;2023-05-09T12:41:43;98189.34;;;27.94;56.51
18275;BME280;19470;49.322;7.218;2023-05-09T12:44:17;98185.25;;;27.77;54.61
18275;BME280;19470;49.322;7.218;2023-05-09T12:46:54;98188.00;;;28.11;53.16
18275;BME280;19470;49.322;7.218;2023-05-09T12:49:21;98187.97;;;27.81;53.90
18275;BME280;19470;49.322;7.218;2023-05-09T12:51:48;98177.41;;;28.02;54.17
18275;BME280;19470;49.322;7.218;2023-05-09T12:54:19;98175.13;;;28.08;53.51
18275;BME280;19470;49.322;7.218;2023-05-09T12:56:45;98168.78;;;28.30;55.04
18275;BME280;19470;49.322;7.218;2023-05-09T12:59:12;98177.63;;;28.20;55.00
18275;BME280;19470;49.322;7.218;2023-05-09T13:01:39;98172.13;;;26.87;58.53
18275;BME280;19470;49.322;7.218;2023-05-09T13:04:07;98179.63;;;27.17;57.73
18275;BME280;19470;49.322;7.218;2023-05-09T13:06:46;98166.59;;;27.52;57.31